Lexington RPC :: Franklin, Ky

liberation: 2021-10-02  09:00     latitude: 36.720467     longitude: -86.523665 25 birds
# LOFT PRING MILES ARRIVAL SPEED ToWin
1 Kastle Loft AU21-KAST-2107 143.065 2021-10-02 11:49:46.162 1483.159 00:00:00
2 Kastle Loft AU21-KAST-2150 143.065 2021-10-02 11:49:46.558 1483.101 00:00:00
3 Kastle Loft AU21-KAST-2154 143.065 2021-10-02 11:49:49.235 1482.712 00:00:03
4 Kastle Loft AU21-KAST-2168 143.065 2021-10-02 11:49:50.182 1482.574 00:00:04
5 Kastle Loft AU21-KAST-2169 143.065 2021-10-02 11:49:53.385 1482.108 00:00:07
6 Kastle Loft AU21-KAST-2100 143.065 2021-10-02 11:49:54.983 1481.876 00:00:09
7 Kastle Loft AU21-KAST-2121 143.065 2021-10-02 11:49:56.889 1481.599 00:00:11
8 Kastle Loft AU21-KAST-2153 143.065 2021-10-02 11:50:02.206 1480.827 00:00:16
9 Kastle Loft AU21-KAST-2182 143.065 2021-10-02 11:50:03.544 1480.632 00:00:17
10 Kastle Loft AU21-KAST-2124 143.065 2021-10-02 11:50:06.336 1480.227 00:00:20
11 Kastle Loft AU21-KAST-2111 143.065 2021-10-02 11:50:07.762 1480.021 00:00:22
12 Kastle Loft AU21-KAST-2115 143.065 2021-10-02 11:52:42.208 1457.961 00:02:56
13 Kastle Loft AU21-KAST-2155 143.065 2021-10-02 11:53:13.651 1453.551 00:03:27
14 Tuttle Lane Loft AU21-LKY-0276 128.407 2021-10-02 11:56:20.234 1281.612 00:23:58
15 Tuttle Lane Loft AU21-LKY-0232 128.407 2021-10-02 11:56:31.414 1280.259 00:24:09
16 Tuttle Lane Loft AU21-LKY-0242 128.407 2021-10-02 11:56:33.397 1280.019 00:24:11
17 Tuttle Lane Loft AU21-LKY-0244 128.407 2021-10-02 11:56:38.950 1279.349 00:24:16
18 Tuttle Lane Loft AU21-LKY-0233 128.407 2021-10-02 11:56:54.611 1277.461 00:24:32
19 Tuttle Lane Loft AU21-LKY-0174 128.407 2021-10-02 11:57:09.274 1275.699 00:24:47
20 Tuttle Lane Loft AU21-LKY-0249 128.407 2021-10-02 12:02:52.037 1235.847 00:30:30
21 Tuttle Lane Loft AU21-LKY-0229 128.407 2021-10-02 14:54:21.291 637.767 03:21:59
22 Tuttle Lane Loft AU21-LKY-0236 128.407 2021-10-03 10:07:34.647 271.588 11:19:45
23 Tuttle Lane Loft AU21-LKY-0248 128.407 2021-10-03 16:44:07.312 183.935 17:56:18
24 Tuttle Lane Loft AU21-LKY-0247 128.407 2021-10-03 17:49:52.267 174.592 19:02:03
Tuttle Lane Loft AU21-LKY-0250 0 0000-00-00 00:00:00.000 0.000 00:00:00